sensor_id;sensor_type;location;lat;lon;timestamp;P1;durP1;ratioP1;P2;durP2;ratioP2
32347;SDS011;18821;44.800;10.326;2024-02-15T00:00:12;21.92;;;10.40;;
32347;SDS011;18821;44.800;10.326;2024-02-15T00:02:40;21.17;;;11.27;;
32347;SDS011;18821;44.800;10.326;2024-02-15T00:05:10;22.67;;;11.20;;
32347;SDS011;18821;44.800;10.326;2024-02-15T00:07:37;20.92;;;10.48;;
32347;SDS011;18821;44.800;10.326;2024-02-15T00:10:03;20.23;;;11.00;;
32347;SDS011;18821;44.800;10.326;2024-02-15T00:12:30;18.00;;;9.88;;
32347;SDS011;18821;44.800;10.326;2024-02-15T00:14:56;18.00;;;9.75;;
32347;SDS011;18821;44.800;10.326;2024-02-15T00:17:24;24.15;;;11.40;;
32347;SDS011;18821;44.800;10.326;2024-02-15T00:19:51;22.42;;;11.63;;
32347;SDS011;18821;44.800;10.326;2024-02-15T00:22:17;21.42;;;10.05;;
32347;SDS011;18821;44.800;10.326;2024-02-15T00:24:43;24.05;;;10.40;;
32347;SDS011;18821;44.800;10.326;2024-02-15T00:27:10;21.92;;;11.30;;
32347;SDS011;18821;44.800;10.326;2024-02-15T00:29:36;20.85;;;9.85;;
32347;SDS011;18821;44.800;10.326;2024-02-15T00:32:02;22.42;;;10.73;;
32347;SDS011;18821;44.800;10.326;2024-02-15T00:34:29;16.95;;;9.93;;
32347;SDS011;18821;44.800;10.326;2024-02-15T00:36:55;21.10;;;10.02;;
32347;SDS011;18821;44.800;10.326;2024-02-15T00:39:21;17.50;;;9.13;;
32347;SDS011;18821;44.800;10.326;2024-02-15T00:41:47;17.45;;;10.07;;
32347;SDS011;18821;44.800;10.326;2024-02-15T00:44:13;18.73;;;10.02;;
32347;SDS011;18821;44.800;10.326;2024-02-15T00:46:39;24.98;;;11.30;;
32347;SDS011;18821;44.800;10.326;2024-02-15T00:49:06;23.40;;;13.48;;
32347;SDS011;18821;44.800;10.326;2024-02-15T00:51:33;23.05;;;12.43;;
32347;SDS011;18821;44.800;10.326;2024-02-15T00:54:02;23.08;;;13.27;;
32347;SDS011;18821;44.800;10.326;2024-02-15T00:56:29;25.08;;;13.60;;
32347;SDS011;18821;44.800;10.326;2024-02-15T00:58:56;21.98;;;13.20;;
32347;SDS011;18821;44.800;10.326;2024-02-15T01:01:22;22.95;;;13.60;;
32347;SDS011;18821;44.800;10.326;2024-02-15T01:03:48;24.98;;;12.30;;
32347;SDS011;18821;44.800;10.326;2024-02-15T01:06:14;19.13;;;10.70;;
32347;SDS011;18821;44.800;10.326;2024-02-15T01:08:40;22.58;;;10.75;;
32347;SDS011;18821;44.800;10.326;2024-02-15T01:11:06;21.48;;;11.25;;
32347;SDS011;18821;44.800;10.326;2024-02-15T01:13:32;18.80;;;10.05;;
32347;SDS011;18821;44.800;10.326;2024-02-15T01:15:58;20.83;;;10.18;;
32347;SDS011;18821;44.800;10.326;2024-02-15T01:18:26;21.85;;;9.55;;
32347;SDS011;18821;44.800;10.326;2024-02-15T01:20:52;20.77;;;10.60;;
32347;SDS011;18821;44.800;10.326;2024-02-15T01:23:18;22.92;;;9.00;;
32347;SDS011;18821;44.800;10.326;2024-02-15T01:25:44;22.40;;;9.90;;
32347;SDS011;18821;44.800;10.326;2024-02-15T01:28:11;18.05;;;9.43;;
32347;SDS011;18821;44.800;10.326;2024-02-15T01:30:37;15.63;;;8.52;;
32347;SDS011;18821;44.800;10.326;2024-02-15T01:33:03;20.85;;;8.90;;
32347;SDS011;18821;44.800;10.326;2024-02-15T01:35:29;16.73;;;8.90;;
32347;SDS011;18821;44.800;10.326;2024-02-15T01:37:55;19.20;;;8.02;;
32347;SDS011;18821;44.800;10.326;2024-02-15T01:40:21;20.10;;;8.60;;
32347;SDS011;18821;44.800;10.326;2024-02-15T01:42:47;14.73;;;7.07;;
32347;SDS011;18821;44.800;10.326;2024-02-15T01:45:15;15.93;;;7.47;;
32347;SDS011;18821;44.800;10.326;2024-02-15T01:47:42;21.50;;;7.70;;
32347;SDS011;18821;44.800;10.326;2024-02-15T01:50:12;17.30;;;7.80;;
32347;SDS011;18821;44.800;10.326;2024-02-15T01:52:39;19.42;;;7.72;;
32347;SDS011;18821;44.800;10.326;2024-02-15T01:55:07;14.45;;;6.85;;
32347;SDS011;18821;44.800;10.326;2024-02-15T01:57:35;15.13;;;7.38;;
32347;SDS011;18821;44.800;10.326;2024-02-15T02:00:04;13.02;;;7.13;;
32347;SDS011;18821;44.800;10.326;2024-02-15T02:02:45;15.70;;;7.05;;
32347;SDS011;18821;44.800;10.326;2024-02-15T02:05:12;14.23;;;7.55;;
32347;SDS011;18821;44.800;10.326;2024-02-15T02:07:38;15.38;;;7.10;;
32347;SDS011;18821;44.800;10.326;2024-02-15T02:10:04;16.23;;;6.88;;
32347;SDS011;18821;44.800;10.326;2024-02-15T02:12:32;10.90;;;6.28;;
32347;SDS011;18821;44.800;10.326;2024-02-15T02:14:58;12.07;;;6.53;;
32347;SDS011;18821;44.800;10.326;2024-02-15T02:17:24;11.27;;;6.30;;
32347;SDS011;18821;44.800;10.326;2024-02-15T02:19:50;14.45;;;6.47;;
32347;SDS011;18821;44.800;10.326;2024-02-15T02:22:16;13.20;;;6.38;;
32347;SDS011;18821;44.800;10.326;2024-02-15T02:27:33;12.32;;;6.38;;
32347;SDS011;18821;44.800;10.326;2024-02-15T02:30:03;10.63;;;5.57;;
32347;SDS011;18821;44.800;10.326;2024-02-15T02:32:32;10.88;;;5.72;;
32347;SDS011;18821;44.800;10.326;2024-02-15T02:34:59;9.95;;;5.50;;
32347;SDS011;18821;44.800;10.326;2024-02-15T02:37:26;11.15;;;5.60;;
32347;SDS011;18821;44.800;10.326;2024-02-15T02:39:52;9.88;;;6.00;;
32347;SDS011;18821;44.800;10.326;2024-02-15T02:42:18;10.23;;;5.25;;
32347;SDS011;18821;44.800;10.326;2024-02-15T02:44:43;10.57;;;5.70;;
32347;SDS011;18821;44.800;10.326;2024-02-15T02:47:10;9.55;;;5.53;;
32347;SDS011;18821;44.800;10.326;2024-02-15T02:49:36;11.57;;;5.03;;
32347;SDS011;18821;44.800;10.326;2024-02-15T02:52:02;10.23;;;5.25;;
32347;SDS011;18821;44.800;10.326;2024-02-15T02:54:29;11.35;;;6.05;;
32347;SDS011;18821;44.800;10.326;2024-02-15T02:56:55;8.20;;;5.18;;
32347;SDS011;18821;44.800;10.326;2024-02-15T02:59:21;12.30;;;5.68;;
32347;SDS011;18821;44.800;10.326;2024-02-15T03:01:47;10.68;;;5.82;;
32347;SDS011;18821;44.800;10.326;2024-02-15T03:04:16;13.68;;;6.15;;
32347;SDS011;18821;44.800;10.326;2024-02-15T03:06:45;10.23;;;6.47;;
32347;SDS011;18821;44.800;10.326;2024-02-15T03:09:13;12.02;;;6.30;;
32347;SDS011;18821;44.800;10.326;2024-02-15T03:11:39;12.18;;;6.85;;
32347;SDS011;18821;44.800;10.326;2024-02-15T03:14:05;12.88;;;6.80;;
32347;SDS011;18821;44.800;10.326;2024-02-15T03:16:32;12.43;;;6.60;;
32347;SDS011;18821;44.800;10.326;2024-02-15T03:18:59;13.57;;;7.35;;
32347;SDS011;18821;44.800;10.326;2024-02-15T03:21:28;11.23;;;6.88;;
32347;SDS011;18821;44.800;10.326;2024-02-15T03:23:54;16.08;;;7.13;;
32347;SDS011;18821;44.800;10.326;2024-02-15T03:26:29;12.57;;;6.72;;
32347;SDS011;18821;44.800;10.326;2024-02-15T03:29:03;13.32;;;6.75;;
32347;SDS011;18821;44.800;10.326;2024-02-15T03:31:30;11.18;;;6.22;;
32347;SDS011;18821;44.800;10.326;2024-02-15T03:33:57;10.90;;;6.13;;
32347;SDS011;18821;44.800;10.326;2024-02-15T03:36:24;11.35;;;6.35;;
32347;SDS011;18821;44.800;10.326;2024-02-15T03:38:50;11.32;;;6.20;;
32347;SDS011;18821;44.800;10.326;2024-02-15T03:41:18;9.25;;;5.72;;
32347;SDS011;18821;44.800;10.326;2024-02-15T03:43:44;14.93;;;6.05;;
32347;SDS011;18821;44.800;10.326;2024-02-15T03:46:10;13.93;;;6.18;;
32347;SDS011;18821;44.800;10.326;2024-02-15T03:48:37;11.43;;;6.22;;
32347;SDS011;18821;44.800;10.326;2024-02-15T03:51:04;12.48;;;6.18;;
32347;SDS011;18821;44.800;10.326;2024-02-15T03:53:31;13.02;;;6.25;;
32347;SDS011;18821;44.800;10.326;2024-02-15T03:55:59;11.10;;;6.10;;
32347;SDS011;18821;44.800;10.326;2024-02-15T03:58:25;11.00;;;6.40;;
32347;SDS011;18821;44.800;10.326;2024-02-15T04:00:51;10.75;;;6.00;;
32347;SDS011;18821;44.800;10.326;2024-02-15T04:03:17;10.25;;;6.00;;
32347;SDS011;18821;44.800;10.326;2024-02-15T04:05:44;14.90;;;7.00;;
32347;SDS011;18821;44.800;10.326;2024-02-15T04:08:09;11.63;;;6.40;;
32347;SDS011;18821;44.800;10.326;2024-02-15T04:10:36;12.32;;;6.30;;
32347;SDS011;18821;44.800;10.326;2024-02-15T04:13:02;11.68;;;6.75;;
32347;SDS011;18821;44.800;10.326;2024-02-15T04:15:28;18.35;;;6.75;;
32347;SDS011;18821;44.800;10.326;2024-02-15T04:17:54;9.88;;;5.70;;
32347;SDS011;18821;44.800;10.326;2024-02-15T04:20:21;12.65;;;6.47;;
32347;SDS011;18821;44.800;10.326;2024-02-15T04:22:47;11.52;;;6.00;;
32347;SDS011;18821;44.800;10.326;2024-02-15T04:25:15;14.73;;;7.43;;
32347;SDS011;18821;44.800;10.326;2024-02-15T04:27:43;11.15;;;6.00;;
32347;SDS011;18821;44.800;10.326;2024-02-15T04:30:11;11.25;;;6.07;;
32347;SDS011;18821;44.800;10.326;2024-02-15T04:32:37;13.10;;;5.50;;
32347;SDS011;18821;44.800;10.326;2024-02-15T04:35:03;12.73;;;5.90;;
32347;SDS011;18821;44.800;10.326;2024-02-15T04:37:30;10.57;;;6.13;;
32347;SDS011;18821;44.800;10.326;2024-02-15T04:40:00;14.77;;;6.57;;
32347;SDS011;18821;44.800;10.326;2024-02-15T04:42:35;15.18;;;7.28;;
32347;SDS011;18821;44.800;10.326;2024-02-15T04:45:05;14.02;;;5.90;;
32347;SDS011;18821;44.800;10.326;2024-02-15T04:47:42;10.98;;;6.50;;
32347;SDS011;18821;44.800;10.326;2024-02-15T04:50:10;12.38;;;5.97;;
32347;SDS011;18821;44.800;10.326;2024-02-15T04:52:36;9.82;;;5.80;;
32347;SDS011;18821;44.800;10.326;2024-02-15T04:55:02;11.45;;;5.80;;
32347;SDS011;18821;44.800;10.326;2024-02-15T04:57:30;12.70;;;5.50;;
32347;SDS011;18821;44.800;10.326;2024-02-15T04:59:58;11.27;;;6.28;;
32347;SDS011;18821;44.800;10.326;2024-02-15T05:02:25;15.10;;;5.93;;
32347;SDS011;18821;44.800;10.326;2024-02-15T05:04:51;11.35;;;6.18;;
32347;SDS011;18821;44.800;10.326;2024-02-15T05:07:22;13.30;;;5.78;;
32347;SDS011;18821;44.800;10.326;2024-02-15T05:09:51;15.38;;;5.65;;
32347;SDS011;18821;44.800;10.326;2024-02-15T05:12:23;10.68;;;5.45;;
32347;SDS011;18821;44.800;10.326;2024-02-15T05:14:52;11.85;;;7.13;;
32347;SDS011;18821;44.800;10.326;2024-02-15T05:17:18;11.00;;;5.68;;
32347;SDS011;18821;44.800;10.326;2024-02-15T05:19:44;11.52;;;5.18;;
32347;SDS011;18821;44.800;10.326;2024-02-15T05:22:10;9.20;;;5.47;;
32347;SDS011;18821;44.800;10.326;2024-02-15T05:24:36;9.65;;;5.50;;
32347;SDS011;18821;44.800;10.326;2024-02-15T05:27:04;8.73;;;4.97;;
32347;SDS011;18821;44.800;10.326;2024-02-15T05:29:30;7.95;;;4.53;;
32347;SDS011;18821;44.800;10.326;2024-02-15T05:32:01;11.43;;;4.68;;
32347;SDS011;18821;44.800;10.326;2024-02-15T05:34:27;16.70;;;5.00;;
32347;SDS011;18821;44.800;10.326;2024-02-15T05:36:55;7.50;;;4.68;;
32347;SDS011;18821;44.800;10.326;2024-02-15T05:39:21;13.27;;;5.25;;
32347;SDS011;18821;44.800;10.326;2024-02-15T05:41:48;11.75;;;4.43;;
32347;SDS011;18821;44.800;10.326;2024-02-15T05:44:14;14.98;;;5.78;;
32347;SDS011;18821;44.800;10.326;2024-02-15T05:46:44;10.68;;;5.65;;
32347;SDS011;18821;44.800;10.326;2024-02-15T05:49:10;14.48;;;5.15;;
32347;SDS011;18821;44.800;10.326;2024-02-15T05:51:41;17.05;;;6.22;;
32347;SDS011;18821;44.800;10.326;2024-02-15T05:54:07;10.63;;;5.32;;
32347;SDS011;18821;44.800;10.326;2024-02-15T05:56:33;11.07;;;6.22;;
32347;SDS011;18821;44.800;10.326;2024-02-15T05:58:59;11.48;;;4.70;;
32347;SDS011;18821;44.800;10.326;2024-02-15T06:01:27;12.65;;;5.88;;
32347;SDS011;18821;44.800;10.326;2024-02-15T06:03:54;14.07;;;5.72;;
32347;SDS011;18821;44.800;10.326;2024-02-15T06:06:21;12.40;;;5.72;;
32347;SDS011;18821;44.800;10.326;2024-02-15T06:08:48;11.02;;;5.88;;
32347;SDS011;18821;44.800;10.326;2024-02-15T06:11:14;13.20;;;5.50;;
32347;SDS011;18821;44.800;10.326;2024-02-15T06:13:45;17.08;;;5.82;;
32347;SDS011;18821;44.800;10.326;2024-02-15T06:16:11;17.70;;;5.68;;
32347;SDS011;18821;44.800;10.326;2024-02-15T06:18:37;13.52;;;5.97;;
32347;SDS011;18821;44.800;10.326;2024-02-15T06:21:03;16.20;;;6.05;;
32347;SDS011;18821;44.800;10.326;2024-02-15T06:23:29;15.50;;;5.20;;
32347;SDS011;18821;44.800;10.326;2024-02-15T06:25:56;18.20;;;5.72;;
32347;SDS011;18821;44.800;10.326;2024-02-15T06:28:28;14.50;;;5.72;;
32347;SDS011;18821;44.800;10.326;2024-02-15T06:33:58;10.10;;;5.13;;
32347;SDS011;18821;44.800;10.326;2024-02-15T06:36:47;15.05;;;4.68;;
32347;SDS011;18821;44.800;10.326;2024-02-15T06:39:31;9.20;;;4.50;;
32347;SDS011;18821;44.800;10.326;2024-02-15T06:42:06;14.65;;;4.72;;
32347;SDS011;18821;44.800;10.326;2024-02-15T06:44:32;9.68;;;4.72;;
32347;SDS011;18821;44.800;10.326;2024-02-15T06:46:58;16.85;;;5.00;;
32347;SDS011;18821;44.800;10.326;2024-02-15T06:49:24;9.57;;;5.00;;
32347;SDS011;18821;44.800;10.326;2024-02-15T06:51:51;11.55;;;4.90;;
32347;SDS011;18821;44.800;10.326;2024-02-15T06:54:17;9.25;;;4.68;;
32347;SDS011;18821;44.800;10.326;2024-02-15T06:56:46;8.88;;;4.32;;
32347;SDS011;18821;44.800;10.326;2024-02-15T06:59:13;15.02;;;4.88;;
32347;SDS011;18821;44.800;10.326;2024-02-15T07:01:43;9.80;;;4.50;;
32347;SDS011;18821;44.800;10.326;2024-02-15T07:04:09;11.23;;;4.60;;
32347;SDS011;18821;44.800;10.326;2024-02-15T07:06:39;15.27;;;5.80;;
32347;SDS011;18821;44.800;10.326;2024-02-15T07:09:05;13.25;;;4.53;;
32347;SDS011;18821;44.800;10.326;2024-02-15T07:11:32;20.42;;;6.68;;
32347;SDS011;18821;44.800;10.326;2024-02-15T07:14:00;15.10;;;4.88;;
32347;SDS011;18821;44.800;10.326;2024-02-15T07:16:26;12.93;;;4.72;;
32347;SDS011;18821;44.800;10.326;2024-02-15T07:18:52;12.35;;;5.32;;
32347;SDS011;18821;44.800;10.326;2024-02-15T07:21:21;14.00;;;5.65;;
32347;SDS011;18821;44.800;10.326;2024-02-15T07:23:53;10.67;;;4.97;;
32347;SDS011;18821;44.800;10.326;2024-02-15T07:26:22;10.63;;;5.03;;
32347;SDS011;18821;44.800;10.326;2024-02-15T07:28:51;12.07;;;4.25;;
32347;SDS011;18821;44.800;10.326;2024-02-15T07:31:20;24.85;;;7.55;;
32347;SDS011;18821;44.800;10.326;2024-02-15T07:33:47;44.13;;;7.43;;
32347;SDS011;18821;44.800;10.326;2024-02-15T07:36:17;36.33;;;5.65;;
32347;SDS011;18821;44.800;10.326;2024-02-15T07:38:44;16.00;;;6.18;;
32347;SDS011;18821;44.800;10.326;2024-02-15T07:41:11;12.98;;;5.00;;
32347;SDS011;18821;44.800;10.326;2024-02-15T07:43:38;20.73;;;6.13;;
32347;SDS011;18821;44.800;10.326;2024-02-15T07:46:04;22.13;;;5.10;;
32347;SDS011;18821;44.800;10.326;2024-02-15T07:48:30;32.25;;;5.97;;
32347;SDS011;18821;44.800;10.326;2024-02-15T07:50:57;41.47;;;9.18;;
32347;SDS011;18821;44.800;10.326;2024-02-15T07:53:24;12.68;;;4.90;;
32347;SDS011;18821;44.800;10.326;2024-02-15T07:55:50;16.23;;;6.55;;
32347;SDS011;18821;44.800;10.326;2024-02-15T07:58:16;19.33;;;5.50;;
32347;SDS011;18821;44.800;10.326;2024-02-15T08:00:45;12.48;;;4.25;;
32347;SDS011;18821;44.800;10.326;2024-02-15T08:03:11;18.92;;;5.45;;
32347;SDS011;18821;44.800;10.326;2024-02-15T08:05:39;17.20;;;6.28;;
32347;SDS011;18821;44.800;10.326;2024-02-15T08:08:05;19.50;;;5.40;;
32347;SDS011;18821;44.800;10.326;2024-02-15T08:10:32;13.48;;;5.32;;
32347;SDS011;18821;44.800;10.326;2024-02-15T08:12:59;9.73;;;4.97;;
32347;SDS011;18821;44.800;10.326;2024-02-15T08:15:25;19.10;;;5.93;;
32347;SDS011;18821;44.800;10.326;2024-02-15T08:17:53;12.50;;;5.63;;
32347;SDS011;18821;44.800;10.326;2024-02-15T08:20:20;16.40;;;5.07;;
32347;SDS011;18821;44.800;10.326;2024-02-15T08:22:46;11.85;;;6.10;;
32347;SDS011;18821;44.800;10.326;2024-02-15T08:25:13;14.98;;;7.32;;
32347;SDS011;18821;44.800;10.326;2024-02-15T08:27:43;16.73;;;7.90;;
32347;SDS011;18821;44.800;10.326;2024-02-15T08:30:15;15.47;;;7.20;;
32347;SDS011;18821;44.800;10.326;2024-02-15T08:32:41;16.45;;;7.80;;
32347;SDS011;18821;44.800;10.326;2024-02-15T08:35:09;16.40;;;8.18;;
32347;SDS011;18821;44.800;10.326;2024-02-15T08:37:36;19.35;;;7.93;;
32347;SDS011;18821;44.800;10.326;2024-02-15T08:40:03;14.60;;;7.93;;
32347;SDS011;18821;44.800;10.326;2024-02-15T08:42:42;19.48;;;7.35;;
32347;SDS011;18821;44.800;10.326;2024-02-15T08:45:08;17.50;;;7.97;;
32347;SDS011;18821;44.800;10.326;2024-02-15T08:47:38;16.08;;;7.30;;
32347;SDS011;18821;44.800;10.326;2024-02-15T08:50:06;15.43;;;8.50;;
32347;SDS011;18821;44.800;10.326;2024-02-15T08:52:39;13.80;;;7.32;;
32347;SDS011;18821;44.800;10.326;2024-02-15T08:55:06;16.02;;;8.10;;
32347;SDS011;18821;44.800;10.326;2024-02-15T08:57:34;19.35;;;9.10;;
32347;SDS011;18821;44.800;10.326;2024-02-15T09:00:02;18.77;;;10.15;;
32347;SDS011;18821;44.800;10.326;2024-02-15T09:02:44;27.55;;;10.68;;
32347;SDS011;18821;44.800;10.326;2024-02-15T09:05:11;19.63;;;9.85;;
32347;SDS011;18821;44.800;10.326;2024-02-15T09:07:43;30.08;;;10.48;;
32347;SDS011;18821;44.800;10.326;2024-02-15T09:10:13;20.92;;;12.88;;
32347;SDS011;18821;44.800;10.326;2024-02-15T09:12:43;25.65;;;13.95;;
32347;SDS011;18821;44.800;10.326;2024-02-15T09:15:12;19.13;;;12.00;;
32347;SDS011;18821;44.800;10.326;2024-02-15T09:17:39;29.02;;;13.98;;
32347;SDS011;18821;44.800;10.326;2024-02-15T09:20:11;31.20;;;17.42;;
32347;SDS011;18821;44.800;10.326;2024-02-15T09:22:47;28.50;;;16.88;;
32347;SDS011;18821;44.800;10.326;2024-02-15T09:25:14;29.77;;;15.57;;
32347;SDS011;18821;44.800;10.326;2024-02-15T09:27:40;34.30;;;18.08;;
32347;SDS011;18821;44.800;10.326;2024-02-15T09:30:06;25.00;;;15.23;;
32347;SDS011;18821;44.800;10.326;2024-02-15T09:32:35;23.38;;;15.02;;
32347;SDS011;18821;44.800;10.326;2024-02-15T09:35:02;28.20;;;16.05;;
32347;SDS011;18821;44.800;10.326;2024-02-15T09:37:28;31.42;;;19.92;;
32347;SDS011;18821;44.800;10.326;2024-02-15T09:39:55;31.88;;;18.08;;
32347;SDS011;18821;44.800;10.326;2024-02-15T09:42:21;28.13;;;16.20;;
32347;SDS011;18821;44.800;10.326;2024-02-15T09:44:49;36.45;;;18.13;;
32347;SDS011;18821;44.800;10.326;2024-02-15T09:47:16;29.35;;;17.42;;
32347;SDS011;18821;44.800;10.326;2024-02-15T09:49:44;32.03;;;18.20;;
32347;SDS011;18821;44.800;10.326;2024-02-15T09:52:10;40.72;;;19.02;;
32347;SDS011;18821;44.800;10.326;2024-02-15T09:54:40;32.88;;;18.75;;
32347;SDS011;18821;44.800;10.326;2024-02-15T09:57:09;34.70;;;21.65;;
32347;SDS011;18821;44.800;10.326;2024-02-15T09:59:37;35.80;;;21.20;;
32347;SDS011;18821;44.800;10.326;2024-02-15T10:02:04;40.72;;;20.60;;
32347;SDS011;18821;44.800;10.326;2024-02-15T10:04:39;42.78;;;25.60;;
32347;SDS011;18821;44.800;10.326;2024-02-15T10:07:05;41.67;;;26.17;;
32347;SDS011;18821;44.800;10.326;2024-02-15T10:09:34;47.35;;;25.92;;
32347;SDS011;18821;44.800;10.326;2024-02-15T10:12:02;44.97;;;25.00;;
32347;SDS011;18821;44.800;10.326;2024-02-15T10:14:32;38.63;;;24.20;;
32347;SDS011;18821;44.800;10.326;2024-02-15T10:17:07;42.83;;;24.90;;
32347;SDS011;18821;44.800;10.326;2024-02-15T10:19:37;47.60;;;26.98;;
32347;SDS011;18821;44.800;10.326;2024-02-15T10:22:07;50.40;;;25.77;;
32347;SDS011;18821;44.800;10.326;2024-02-15T10:24:34;41.13;;;24.25;;
32347;SDS011;18821;44.800;10.326;2024-02-15T10:27:02;41.58;;;24.73;;
32347;SDS011;18821;44.800;10.326;2024-02-15T10:29:35;44.97;;;26.35;;
32347;SDS011;18821;44.800;10.326;2024-02-15T10:32:02;44.78;;;25.70;;
32347;SDS011;18821;44.800;10.326;2024-02-15T10:34:29;48.13;;;27.70;;
32347;SDS011;18821;44.800;10.326;2024-02-15T10:37:12;45.08;;;26.55;;
32347;SDS011;18821;44.800;10.326;2024-02-15T10:39:41;41.95;;;27.10;;
32347;SDS011;18821;44.800;10.326;2024-02-15T10:42:08;45.97;;;28.35;;
32347;SDS011;18821;44.800;10.326;2024-02-15T10:44:37;44.25;;;27.67;;
32347;SDS011;18821;44.800;10.326;2024-02-15T10:47:07;48.08;;;27.88;;
32347;SDS011;18821;44.800;10.326;2024-02-15T10:49:34;50.28;;;27.20;;
32347;SDS011;18821;44.800;10.326;2024-02-15T10:52:04;41.10;;;25.17;;
32347;SDS011;18821;44.800;10.326;2024-02-15T10:57:13;45.03;;;27.17;;
32347;SDS011;18821;44.800;10.326;2024-02-15T11:02:23;41.47;;;26.55;;
32347;SDS011;18821;44.800;10.326;2024-02-15T11:04:53;41.75;;;27.70;;
32347;SDS011;18821;44.800;10.326;2024-02-15T11:07:25;42.35;;;27.70;;
32347;SDS011;18821;44.800;10.326;2024-02-15T11:09:54;42.03;;;25.55;;
32347;SDS011;18821;44.800;10.326;2024-02-15T11:12:23;45.28;;;27.58;;
32347;SDS011;18821;44.800;10.326;2024-02-15T11:14:53;48.90;;;27.13;;
32347;SDS011;18821;44.800;10.326;2024-02-15T11:20:10;44.00;;;26.90;;
32347;SDS011;18821;44.800;10.326;2024-02-15T11:23:02;40.70;;;27.35;;
32347;SDS011;18821;44.800;10.326;2024-02-15T11:25:35;45.22;;;26.13;;
32347;SDS011;18821;44.800;10.326;2024-02-15T11:30:49;48.83;;;28.48;;
32347;SDS011;18821;44.800;10.326;2024-02-15T11:33:31;45.85;;;25.75;;
32347;SDS011;18821;44.800;10.326;2024-02-15T11:36:03;46.80;;;26.55;;
32347;SDS011;18821;44.800;10.326;2024-02-15T11:38:35;47.85;;;28.83;;
32347;SDS011;18821;44.800;10.326;2024-02-15T11:46:22;47.83;;;27.83;;
32347;SDS011;18821;44.800;10.326;2024-02-15T11:48:55;43.28;;;27.92;;
32347;SDS011;18821;44.800;10.326;2024-02-15T11:54:01;46.55;;;28.67;;
32347;SDS011;18821;44.800;10.326;2024-02-15T11:59:13;44.85;;;29.05;;
32347;SDS011;18821;44.800;10.326;2024-02-15T12:01:58;48.40;;;29.75;;
32347;SDS011;18821;44.800;10.326;2024-02-15T12:04:42;42.53;;;27.33;;
32347;SDS011;18821;44.800;10.326;2024-02-15T12:07:28;47.08;;;28.85;;
32347;SDS011;18821;44.800;10.326;2024-02-15T12:10:19;49.42;;;29.38;;
32347;SDS011;18821;44.800;10.326;2024-02-15T12:13:04;46.60;;;28.95;;
32347;SDS011;18821;44.800;10.326;2024-02-15T12:15:58;55.17;;;30.63;;
32347;SDS011;18821;44.800;10.326;2024-02-15T12:18:44;48.00;;;29.27;;
32347;SDS011;18821;44.800;10.326;2024-02-15T12:21:20;47.92;;;31.42;;
32347;SDS011;18821;44.800;10.326;2024-02-15T12:23:52;55.10;;;34.75;;
32347;SDS011;18821;44.800;10.326;2024-02-15T12:26:21;51.72;;;30.55;;
32347;SDS011;18821;44.800;10.326;2024-02-15T12:28:51;47.47;;;29.73;;
32347;SDS011;18821;44.800;10.326;2024-02-15T12:31:22;46.38;;;29.75;;
32347;SDS011;18821;44.800;10.326;2024-02-15T12:33:59;50.50;;;28.77;;
32347;SDS011;18821;44.800;10.326;2024-02-15T12:36:32;48.75;;;30.90;;
32347;SDS011;18821;44.800;10.326;2024-02-15T12:39:02;51.75;;;31.13;;
32347;SDS011;18821;44.800;10.326;2024-02-15T12:41:48;47.05;;;30.50;;
32347;SDS011;18821;44.800;10.326;2024-02-15T12:44:16;53.20;;;32.03;;
32347;SDS011;18821;44.800;10.326;2024-02-15T12:46:46;48.58;;;31.73;;
32347;SDS011;18821;44.800;10.326;2024-02-15T12:51:50;65.03;;;31.63;;
32347;SDS011;18821;44.800;10.326;2024-02-15T12:54:23;53.08;;;34.58;;
32347;SDS011;18821;44.800;10.326;2024-02-15T12:56:49;53.75;;;31.40;;
32347;SDS011;18821;44.800;10.326;2024-02-15T12:59:18;54.40;;;30.60;;
32347;SDS011;18821;44.800;10.326;2024-02-15T13:01:45;51.67;;;30.60;;
32347;SDS011;18821;44.800;10.326;2024-02-15T13:04:23;55.22;;;33.38;;
32347;SDS011;18821;44.800;10.326;2024-02-15T13:06:54;67.07;;;39.90;;
32347;SDS011;18821;44.800;10.326;2024-02-15T13:09:20;51.08;;;33.45;;
32347;SDS011;18821;44.800;10.326;2024-02-15T13:11:48;51.53;;;33.25;;
32347;SDS011;18821;44.800;10.326;2024-02-15T13:14:15;53.15;;;34.75;;
32347;SDS011;18821;44.800;10.326;2024-02-15T13:16:41;52.38;;;34.53;;
32347;SDS011;18821;44.800;10.326;2024-02-15T13:19:09;55.42;;;35.05;;
32347;SDS011;18821;44.800;10.326;2024-02-15T13:21:35;55.08;;;34.38;;
32347;SDS011;18821;44.800;10.326;2024-02-15T13:24:01;56.63;;;34.15;;
32347;SDS011;18821;44.800;10.326;2024-02-15T13:26:30;52.95;;;35.08;;
32347;SDS011;18821;44.800;10.326;2024-02-15T13:28:59;53.47;;;33.60;;
32347;SDS011;18821;44.800;10.326;2024-02-15T13:31:25;58.75;;;36.28;;
32347;SDS011;18821;44.800;10.326;2024-02-15T13:33:52;53.30;;;33.47;;
32347;SDS011;18821;44.800;10.326;2024-02-15T13:36:18;55.75;;;37.60;;
32347;SDS011;18821;44.800;10.326;2024-02-15T13:38:45;54.63;;;34.65;;
32347;SDS011;18821;44.800;10.326;2024-02-15T13:41:12;54.42;;;35.15;;
32347;SDS011;18821;44.800;10.326;2024-02-15T13:43:38;60.80;;;35.38;;
32347;SDS011;18821;44.800;10.326;2024-02-15T13:46:06;50.80;;;33.30;;
32347;SDS011;18821;44.800;10.326;2024-02-15T13:48:32;52.63;;;34.42;;
32347;SDS011;18821;44.800;10.326;2024-02-15T13:50:58;51.85;;;33.80;;
32347;SDS011;18821;44.800;10.326;2024-02-15T13:53:24;54.60;;;33.38;;
32347;SDS011;18821;44.800;10.326;2024-02-15T13:55:50;53.70;;;31.75;;
32347;SDS011;18821;44.800;10.326;2024-02-15T13:58:19;55.35;;;32.85;;
32347;SDS011;18821;44.800;10.326;2024-02-15T14:00:45;56.15;;;35.17;;
32347;SDS011;18821;44.800;10.326;2024-02-15T14:03:13;55.58;;;35.25;;
32347;SDS011;18821;44.800;10.326;2024-02-15T14:05:40;53.50;;;35.42;;
32347;SDS011;18821;44.800;10.326;2024-02-15T14:08:07;59.65;;;35.78;;
32347;SDS011;18821;44.800;10.326;2024-02-15T14:10:36;66.70;;;34.85;;
32347;SDS011;18821;44.800;10.326;2024-02-15T14:13:03;53.42;;;34.78;;
32347;SDS011;18821;44.800;10.326;2024-02-15T14:15:36;56.22;;;35.88;;
32347;SDS011;18821;44.800;10.326;2024-02-15T14:18:09;55.55;;;36.42;;
32347;SDS011;18821;44.800;10.326;2024-02-15T14:20:36;54.00;;;36.53;;
32347;SDS011;18821;44.800;10.326;2024-02-15T14:23:02;59.53;;;35.63;;
32347;SDS011;18821;44.800;10.326;2024-02-15T14:25:31;58.28;;;38.28;;
32347;SDS011;18821;44.800;10.326;2024-02-15T14:27:57;61.45;;;37.45;;
32347;SDS011;18821;44.800;10.326;2024-02-15T14:30:24;60.67;;;36.75;;
32347;SDS011;18821;44.800;10.326;2024-02-15T14:33:09;61.58;;;37.10;;
32347;SDS011;18821;44.800;10.326;2024-02-15T14:35:37;66.55;;;38.65;;
32347;SDS011;18821;44.800;10.326;2024-02-15T14:38:06;61.35;;;37.30;;
32347;SDS011;18821;44.800;10.326;2024-02-15T14:43:05;63.15;;;37.83;;
32347;SDS011;18821;44.800;10.326;2024-02-15T14:45:32;64.57;;;39.00;;
32347;SDS011;18821;44.800;10.326;2024-02-15T14:48:04;64.00;;;36.83;;
32347;SDS011;18821;44.800;10.326;2024-02-15T14:50:30;57.35;;;36.30;;
32347;SDS011;18821;44.800;10.326;2024-02-15T14:52:56;55.00;;;35.60;;
32347;SDS011;18821;44.800;10.326;2024-02-15T14:55:22;57.58;;;36.50;;